Parachute, Colorado
Current Conditions -  °F | °C
As of 10:53 PM on Wednesday 26 Nov 2014 (Local Time) from KRIL Reporting Station
Clear Clear  
Wind Chill: 25°   Ceiling: Unl
Heat Index: 25°   Visibility: 10mi
Dew Point: 21°   Wind: 3mph
Humidity: 85%   Direction: 160°SSE
Pressure: 30.48"   Gusts: NA
Location:  39.45°N, 108.05°W
Report Text: KRIL 270553Z AUTO 16003KT 10SM CLR M04/M06 A3048 RMK AO2 SLP342 T10391061 10039 21044 51011
Loading
Personal Weather Stations






























Interactive Weather Map New forecast layout! Learn more

10-Day Weather Forecast

Advertisements
Track Severe Weather on mobile